sensor_id;sensor_type;location;lat;lon;timestamp;P1;durP1;ratioP1;P2;durP2;ratioP2
78740;SDS011;68062;48.726;9.370;2023-05-02T00:02:22;10.90;;;7.80;;
78740;SDS011;68062;48.726;9.370;2023-05-02T00:04:48;10.13;;;7.93;;
78740;SDS011;68062;48.726;9.370;2023-05-02T00:07:15;8.63;;;7.20;;
78740;SDS011;68062;48.726;9.370;2023-05-02T00:09:43;10.57;;;9.23;;
78740;SDS011;68062;48.726;9.370;2023-05-02T00:12:09;9.83;;;8.13;;
78740;SDS011;68062;48.726;9.370;2023-05-02T00:14:36;8.07;;;7.23;;
78740;SDS011;68062;48.726;9.370;2023-05-02T00:17:03;9.30;;;6.83;;
78740;SDS011;68062;48.726;9.370;2023-05-02T00:19:30;10.00;;;7.23;;
78740;SDS011;68062;48.726;9.370;2023-05-02T00:21:57;9.77;;;7.83;;
78740;SDS011;68062;48.726;9.370;2023-05-02T00:24:23;9.13;;;7.30;;
78740;SDS011;68062;48.726;9.370;2023-05-02T00:26:52;9.10;;;7.20;;
78740;SDS011;68062;48.726;9.370;2023-05-02T00:29:18;9.67;;;7.80;;
78740;SDS011;68062;48.726;9.370;2023-05-02T00:31:45;8.70;;;7.20;;
78740;SDS011;68062;48.726;9.370;2023-05-02T00:34:12;10.90;;;7.50;;
78740;SDS011;68062;48.726;9.370;2023-05-02T00:36:38;15.47;;;7.50;;
78740;SDS011;68062;48.726;9.370;2023-05-02T00:39:05;10.73;;;8.53;;
78740;SDS011;68062;48.726;9.370;2023-05-02T00:41:32;9.63;;;7.70;;
78740;SDS011;68062;48.726;9.370;2023-05-02T00:44:00;8.20;;;7.20;;
78740;SDS011;68062;48.726;9.370;2023-05-02T00:46:27;10.90;;;8.13;;
78740;SDS011;68062;48.726;9.370;2023-05-02T00:48:55;12.53;;;8.50;;
78740;SDS011;68062;48.726;9.370;2023-05-02T00:51:21;9.57;;;7.73;;
78740;SDS011;68062;48.726;9.370;2023-05-02T00:53:48;10.00;;;7.87;;
78740;SDS011;68062;48.726;9.370;2023-05-02T00:56:16;10.77;;;8.43;;
78740;SDS011;68062;48.726;9.370;2023-05-02T00:58:43;10.83;;;7.53;;
78740;SDS011;68062;48.726;9.370;2023-05-02T01:01:18;9.20;;;7.33;;
78740;SDS011;68062;48.726;9.370;2023-05-02T01:03:56;8.47;;;7.47;;
78740;SDS011;68062;48.726;9.370;2023-05-02T01:06:34;9.03;;;7.57;;
78740;SDS011;68062;48.726;9.370;2023-05-02T01:09:20;9.30;;;7.80;;
78740;SDS011;68062;48.726;9.370;2023-05-02T01:12:00;10.40;;;8.10;;
78740;SDS011;68062;48.726;9.370;2023-05-02T01:14:32;11.43;;;7.70;;
78740;SDS011;68062;48.726;9.370;2023-05-02T01:17:03;8.57;;;6.93;;
78740;SDS011;68062;48.726;9.370;2023-05-02T01:19:33;12.23;;;8.20;;
78740;SDS011;68062;48.726;9.370;2023-05-02T01:22:02;10.70;;;7.00;;
78740;SDS011;68062;48.726;9.370;2023-05-02T01:24:34;8.10;;;6.97;;
78740;SDS011;68062;48.726;9.370;2023-05-02T01:27:10;8.57;;;7.40;;
78740;SDS011;68062;48.726;9.370;2023-05-02T01:29:45;8.17;;;6.80;;
78740;SDS011;68062;48.726;9.370;2023-05-02T01:32:16;8.80;;;7.13;;
78740;SDS011;68062;48.726;9.370;2023-05-02T01:34:47;10.83;;;7.37;;
78740;SDS011;68062;48.726;9.370;2023-05-02T01:37:18;12.10;;;7.80;;
78740;SDS011;68062;48.726;9.370;2023-05-02T01:39:46;8.23;;;6.93;;
78740;SDS011;68062;48.726;9.370;2023-05-02T01:42:16;9.03;;;7.17;;
78740;SDS011;68062;48.726;9.370;2023-05-02T01:44:46;9.43;;;7.93;;
78740;SDS011;68062;48.726;9.370;2023-05-02T01:47:14;10.20;;;7.33;;
78740;SDS011;68062;48.726;9.370;2023-05-02T01:49:41;8.60;;;6.93;;
78740;SDS011;68062;48.726;9.370;2023-05-02T01:52:10;10.23;;;7.67;;
78740;SDS011;68062;48.726;9.370;2023-05-02T01:54:38;9.33;;;7.20;;
78740;SDS011;68062;48.726;9.370;2023-05-02T01:57:06;8.30;;;7.33;;
78740;SDS011;68062;48.726;9.370;2023-05-02T01:59:36;9.80;;;7.63;;
78740;SDS011;68062;48.726;9.370;2023-05-02T02:02:08;9.93;;;7.80;;
78740;SDS011;68062;48.726;9.370;2023-05-02T02:04:38;10.70;;;6.80;;
78740;SDS011;68062;48.726;9.370;2023-05-02T02:07:08;9.60;;;7.80;;
78740;SDS011;68062;48.726;9.370;2023-05-02T02:09:38;8.67;;;7.57;;
78740;SDS011;68062;48.726;9.370;2023-05-02T02:12:06;8.70;;;6.67;;
78740;SDS011;68062;48.726;9.370;2023-05-02T02:14:38;9.50;;;8.03;;
78740;SDS011;68062;48.726;9.370;2023-05-02T02:17:12;11.27;;;8.10;;
78740;SDS011;68062;48.726;9.370;2023-05-02T02:19:43;11.40;;;8.77;;
78740;SDS011;68062;48.726;9.370;2023-05-02T02:22:11;10.87;;;7.40;;
78740;SDS011;68062;48.726;9.370;2023-05-02T02:24:40;10.10;;;8.03;;
78740;SDS011;68062;48.726;9.370;2023-05-02T02:27:10;12.80;;;8.33;;
78740;SDS011;68062;48.726;9.370;2023-05-02T02:29:36;10.17;;;8.80;;
78740;SDS011;68062;48.726;9.370;2023-05-02T02:32:03;11.70;;;8.37;;
78740;SDS011;68062;48.726;9.370;2023-05-02T02:34:31;10.93;;;8.40;;
78740;SDS011;68062;48.726;9.370;2023-05-02T02:36:59;11.23;;;8.50;;
78740;SDS011;68062;48.726;9.370;2023-05-02T02:39:34;13.00;;;10.13;;
78740;SDS011;68062;48.726;9.370;2023-05-02T02:42:10;12.07;;;9.93;;
78740;SDS011;68062;48.726;9.370;2023-05-02T02:44:43;12.43;;;9.20;;
78740;SDS011;68062;48.726;9.370;2023-05-02T02:47:20;11.77;;;8.87;;
78740;SDS011;68062;48.726;9.370;2023-05-02T02:49:58;12.53;;;9.83;;
78740;SDS011;68062;48.726;9.370;2023-05-02T02:52:37;12.90;;;9.33;;
78740;SDS011;68062;48.726;9.370;2023-05-02T02:55:16;11.57;;;9.33;;
78740;SDS011;68062;48.726;9.370;2023-05-02T02:57:50;13.63;;;9.40;;
78740;SDS011;68062;48.726;9.370;2023-05-02T03:00:23;14.40;;;9.93;;
78740;SDS011;68062;48.726;9.370;2023-05-02T03:02:53;11.20;;;8.40;;
78740;SDS011;68062;48.726;9.370;2023-05-02T03:05:22;12.93;;;8.93;;
78740;SDS011;68062;48.726;9.370;2023-05-02T03:07:49;11.70;;;8.20;;
78740;SDS011;68062;48.726;9.370;2023-05-02T03:10:20;10.83;;;7.83;;
78740;SDS011;68062;48.726;9.370;2023-05-02T03:12:47;13.97;;;9.63;;
78740;SDS011;68062;48.726;9.370;2023-05-02T03:15:21;13.00;;;9.57;;
78740;SDS011;68062;48.726;9.370;2023-05-02T03:17:54;12.13;;;9.37;;
78740;SDS011;68062;48.726;9.370;2023-05-02T03:20:23;13.80;;;9.53;;
78740;SDS011;68062;48.726;9.370;2023-05-02T03:22:49;14.10;;;10.00;;
78740;SDS011;68062;48.726;9.370;2023-05-02T03:25:16;11.07;;;9.13;;
78740;SDS011;68062;48.726;9.370;2023-05-02T03:27:46;9.87;;;8.50;;
78740;SDS011;68062;48.726;9.370;2023-05-02T03:30:13;11.47;;;9.07;;
78740;SDS011;68062;48.726;9.370;2023-05-02T03:32:40;10.20;;;8.97;;
78740;SDS011;68062;48.726;9.370;2023-05-02T03:35:08;11.90;;;8.73;;
78740;SDS011;68062;48.726;9.370;2023-05-02T03:37:41;10.67;;;8.87;;
78740;SDS011;68062;48.726;9.370;2023-05-02T03:40:08;13.10;;;8.57;;
78740;SDS011;68062;48.726;9.370;2023-05-02T03:42:35;10.17;;;8.60;;
78740;SDS011;68062;48.726;9.370;2023-05-02T03:45:15;13.60;;;8.63;;
78740;SDS011;68062;48.726;9.370;2023-05-02T03:47:43;12.70;;;8.93;;
78740;SDS011;68062;48.726;9.370;2023-05-02T03:50:10;12.43;;;8.50;;
78740;SDS011;68062;48.726;9.370;2023-05-02T03:52:37;13.97;;;9.33;;
78740;SDS011;68062;48.726;9.370;2023-05-02T03:55:06;13.53;;;9.37;;
78740;SDS011;68062;48.726;9.370;2023-05-02T03:57:33;16.30;;;9.10;;
78740;SDS011;68062;48.726;9.370;2023-05-02T04:00:00;10.60;;;8.60;;
78740;SDS011;68062;48.726;9.370;2023-05-02T04:02:36;13.10;;;8.53;;
78740;SDS011;68062;48.726;9.370;2023-05-02T04:05:05;12.80;;;9.40;;
78740;SDS011;68062;48.726;9.370;2023-05-02T04:07:34;12.43;;;8.53;;
78740;SDS011;68062;48.726;9.370;2023-05-02T04:10:03;12.80;;;8.80;;
78740;SDS011;68062;48.726;9.370;2023-05-02T04:12:38;11.40;;;8.43;;
78740;SDS011;68062;48.726;9.370;2023-05-02T04:15:05;11.60;;;8.73;;
78740;SDS011;68062;48.726;9.370;2023-05-02T04:17:33;12.07;;;9.00;;
78740;SDS011;68062;48.726;9.370;2023-05-02T04:20:00;11.07;;;8.70;;
78740;SDS011;68062;48.726;9.370;2023-05-02T04:22:28;15.47;;;9.40;;
78740;SDS011;68062;48.726;9.370;2023-05-02T04:24:58;11.63;;;9.13;;
78740;SDS011;68062;48.726;9.370;2023-05-02T04:27:26;12.87;;;8.80;;
78740;SDS011;68062;48.726;9.370;2023-05-02T04:29:54;9.80;;;7.63;;
78740;SDS011;68062;48.726;9.370;2023-05-02T04:32:21;9.27;;;8.23;;
78740;SDS011;68062;48.726;9.370;2023-05-02T04:34:48;13.23;;;8.53;;
78740;SDS011;68062;48.726;9.370;2023-05-02T04:37:16;8.97;;;8.17;;
78740;SDS011;68062;48.726;9.370;2023-05-02T04:39:44;9.90;;;7.47;;
78740;SDS011;68062;48.726;9.370;2023-05-02T04:42:16;11.23;;;8.80;;
78740;SDS011;68062;48.726;9.370;2023-05-02T04:44:55;12.33;;;9.30;;
78740;SDS011;68062;48.726;9.370;2023-05-02T04:47:22;16.07;;;10.43;;
78740;SDS011;68062;48.726;9.370;2023-05-02T04:49:49;14.87;;;10.03;;
78740;SDS011;68062;48.726;9.370;2023-05-02T04:52:16;10.77;;;9.10;;
78740;SDS011;68062;48.726;9.370;2023-05-02T04:54:43;12.93;;;9.00;;
78740;SDS011;68062;48.726;9.370;2023-05-02T04:57:10;13.27;;;10.63;;
78740;SDS011;68062;48.726;9.370;2023-05-02T04:59:41;15.90;;;11.70;;
78740;SDS011;68062;48.726;9.370;2023-05-02T05:02:10;13.77;;;11.27;;
78740;SDS011;68062;48.726;9.370;2023-05-02T05:04:37;14.13;;;10.57;;
78740;SDS011;68062;48.726;9.370;2023-05-02T05:07:04;16.40;;;12.27;;
78740;SDS011;68062;48.726;9.370;2023-05-02T05:09:31;14.50;;;10.77;;
78740;SDS011;68062;48.726;9.370;2023-05-02T05:11:57;14.97;;;12.27;;
78740;SDS011;68062;48.726;9.370;2023-05-02T05:14:26;13.97;;;11.20;;
78740;SDS011;68062;48.726;9.370;2023-05-02T05:16:54;13.27;;;10.57;;
78740;SDS011;68062;48.726;9.370;2023-05-02T05:19:23;12.63;;;10.30;;
78740;SDS011;68062;48.726;9.370;2023-05-02T05:21:51;14.97;;;10.00;;
78740;SDS011;68062;48.726;9.370;2023-05-02T05:24:19;15.40;;;11.80;;
78740;SDS011;68062;48.726;9.370;2023-05-02T05:26:47;17.60;;;12.40;;
78740;SDS011;68062;48.726;9.370;2023-05-02T05:29:14;15.43;;;12.13;;
78740;SDS011;68062;48.726;9.370;2023-05-02T05:31:42;13.90;;;10.93;;
78740;SDS011;68062;48.726;9.370;2023-05-02T05:34:12;13.50;;;10.70;;
78740;SDS011;68062;48.726;9.370;2023-05-02T05:36:41;14.53;;;11.30;;
78740;SDS011;68062;48.726;9.370;2023-05-02T05:39:08;12.87;;;10.80;;
78740;SDS011;68062;48.726;9.370;2023-05-02T05:41:37;13.83;;;11.33;;
78740;SDS011;68062;48.726;9.370;2023-05-02T05:44:07;12.10;;;9.73;;
78740;SDS011;68062;48.726;9.370;2023-05-02T05:46:34;12.67;;;9.63;;
78740;SDS011;68062;48.726;9.370;2023-05-02T05:49:03;14.20;;;9.93;;
78740;SDS011;68062;48.726;9.370;2023-05-02T05:51:29;12.27;;;10.37;;
78740;SDS011;68062;48.726;9.370;2023-05-02T05:53:59;13.73;;;10.73;;
78740;SDS011;68062;48.726;9.370;2023-05-02T05:56:26;12.13;;;10.90;;
78740;SDS011;68062;48.726;9.370;2023-05-02T05:59:01;15.40;;;10.70;;
78740;SDS011;68062;48.726;9.370;2023-05-02T06:01:28;15.23;;;10.33;;
78740;SDS011;68062;48.726;9.370;2023-05-02T06:03:56;15.00;;;11.37;;
78740;SDS011;68062;48.726;9.370;2023-05-02T06:06:24;14.03;;;11.40;;
78740;SDS011;68062;48.726;9.370;2023-05-02T06:08:51;13.50;;;10.50;;
78740;SDS011;68062;48.726;9.370;2023-05-02T06:11:20;11.73;;;9.97;;
78740;SDS011;68062;48.726;9.370;2023-05-02T06:13:48;10.47;;;9.63;;
78740;SDS011;68062;48.726;9.370;2023-05-02T06:16:16;12.97;;;9.50;;
78740;SDS011;68062;48.726;9.370;2023-05-02T06:18:44;12.20;;;9.43;;
78740;SDS011;68062;48.726;9.370;2023-05-02T06:21:12;11.60;;;9.30;;
78740;SDS011;68062;48.726;9.370;2023-05-02T06:23:39;10.17;;;9.10;;
78740;SDS011;68062;48.726;9.370;2023-05-02T06:26:05;10.20;;;9.60;;
78740;SDS011;68062;48.726;9.370;2023-05-02T06:28:34;10.07;;;8.30;;
78740;SDS011;68062;48.726;9.370;2023-05-02T06:31:01;9.87;;;8.20;;
78740;SDS011;68062;48.726;9.370;2023-05-02T06:33:29;13.17;;;10.37;;
78740;SDS011;68062;48.726;9.370;2023-05-02T06:35:56;9.53;;;8.40;;
78740;SDS011;68062;48.726;9.370;2023-05-02T06:38:24;9.00;;;7.90;;
78740;SDS011;68062;48.726;9.370;2023-05-02T06:40:50;8.67;;;8.17;;
78740;SDS011;68062;48.726;9.370;2023-05-02T06:43:18;7.90;;;7.50;;
78740;SDS011;68062;48.726;9.370;2023-05-02T06:45:46;8.57;;;7.67;;
78740;SDS011;68062;48.726;9.370;2023-05-02T06:48:13;9.87;;;8.30;;
78740;SDS011;68062;48.726;9.370;2023-05-02T06:50:40;8.47;;;7.07;;
78740;SDS011;68062;48.726;9.370;2023-05-02T06:53:07;8.73;;;7.77;;
78740;SDS011;68062;48.726;9.370;2023-05-02T06:55:34;8.50;;;8.00;;
78740;SDS011;68062;48.726;9.370;2023-05-02T06:58:00;8.20;;;7.80;;
78740;SDS011;68062;48.726;9.370;2023-05-02T07:00:27;8.80;;;7.53;;
78740;SDS011;68062;48.726;9.370;2023-05-02T07:02:55;12.00;;;8.57;;
78740;SDS011;68062;48.726;9.370;2023-05-02T07:05:23;9.13;;;8.57;;
78740;SDS011;68062;48.726;9.370;2023-05-02T07:07:50;10.10;;;7.33;;
78740;SDS011;68062;48.726;9.370;2023-05-02T07:10:16;8.27;;;7.80;;
78740;SDS011;68062;48.726;9.370;2023-05-02T07:12:43;7.40;;;6.40;;
78740;SDS011;68062;48.726;9.370;2023-05-02T07:15:10;7.97;;;6.83;;
78740;SDS011;68062;48.726;9.370;2023-05-02T07:17:38;8.37;;;7.43;;
78740;SDS011;68062;48.726;9.370;2023-05-02T07:20:07;9.70;;;7.53;;
78740;SDS011;68062;48.726;9.370;2023-05-02T07:22:36;10.80;;;7.57;;
78740;SDS011;68062;48.726;9.370;2023-05-02T07:25:03;9.30;;;7.67;;
78740;SDS011;68062;48.726;9.370;2023-05-02T07:27:30;8.70;;;7.17;;
78740;SDS011;68062;48.726;9.370;2023-05-02T07:29:57;9.23;;;7.13;;
78740;SDS011;68062;48.726;9.370;2023-05-02T07:32:24;7.30;;;6.90;;
78740;SDS011;68062;48.726;9.370;2023-05-02T07:34:51;7.70;;;7.23;;
78740;SDS011;68062;48.726;9.370;2023-05-02T07:37:20;8.27;;;7.90;;
78740;SDS011;68062;48.726;9.370;2023-05-02T07:39:47;9.13;;;7.97;;
78740;SDS011;68062;48.726;9.370;2023-05-02T07:42:14;8.93;;;7.77;;
78740;SDS011;68062;48.726;9.370;2023-05-02T07:44:41;9.13;;;8.40;;
78740;SDS011;68062;48.726;9.370;2023-05-02T07:47:08;8.50;;;8.00;;
78740;SDS011;68062;48.726;9.370;2023-05-02T07:49:35;12.33;;;8.80;;
78740;SDS011;68062;48.726;9.370;2023-05-02T07:52:02;10.00;;;8.70;;
78740;SDS011;68062;48.726;9.370;2023-05-02T07:54:31;9.30;;;8.57;;
78740;SDS011;68062;48.726;9.370;2023-05-02T07:56:57;11.40;;;9.27;;
78740;SDS011;68062;48.726;9.370;2023-05-02T07:59:28;10.20;;;8.70;;
78740;SDS011;68062;48.726;9.370;2023-05-02T08:01:55;14.40;;;10.30;;
78740;SDS011;68062;48.726;9.370;2023-05-02T08:04:22;11.87;;;9.80;;
78740;SDS011;68062;48.726;9.370;2023-05-02T08:06:48;11.40;;;10.20;;
78740;SDS011;68062;48.726;9.370;2023-05-02T08:09:15;12.20;;;11.03;;
78740;SDS011;68062;48.726;9.370;2023-05-02T08:11:44;11.13;;;9.30;;
78740;SDS011;68062;48.726;9.370;2023-05-02T08:14:11;10.33;;;9.30;;
78740;SDS011;68062;48.726;9.370;2023-05-02T08:16:38;10.60;;;10.10;;
78740;SDS011;68062;48.726;9.370;2023-05-02T08:19:05;11.60;;;11.00;;
78740;SDS011;68062;48.726;9.370;2023-05-02T08:21:32;12.60;;;9.77;;
78740;SDS011;68062;48.726;9.370;2023-05-02T08:23:58;15.43;;;12.40;;
78740;SDS011;68062;48.726;9.370;2023-05-02T08:26:26;12.83;;;11.23;;
78740;SDS011;68062;48.726;9.370;2023-05-02T08:28:54;14.73;;;12.03;;
78740;SDS011;68062;48.726;9.370;2023-05-02T08:31:21;14.73;;;13.70;;
78740;SDS011;68062;48.726;9.370;2023-05-02T08:33:47;13.70;;;13.00;;
78740;SDS011;68062;48.726;9.370;2023-05-02T08:36:15;18.50;;;15.27;;
78740;SDS011;68062;48.726;9.370;2023-05-02T08:38:43;19.67;;;15.93;;
78740;SDS011;68062;48.726;9.370;2023-05-02T08:41:11;22.17;;;16.23;;
78740;SDS011;68062;48.726;9.370;2023-05-02T08:43:38;18.50;;;16.77;;
78740;SDS011;68062;48.726;9.370;2023-05-02T08:46:06;23.90;;;18.20;;
78740;SDS011;68062;48.726;9.370;2023-05-02T08:48:37;22.47;;;16.57;;
78740;SDS011;68062;48.726;9.370;2023-05-02T08:51:07;24.20;;;17.80;;
78740;SDS011;68062;48.726;9.370;2023-05-02T08:53:35;24.03;;;18.03;;
78740;SDS011;68062;48.726;9.370;2023-05-02T08:56:03;20.80;;;16.60;;
78740;SDS011;68062;48.726;9.370;2023-05-02T08:58:30;26.60;;;17.73;;
78740;SDS011;68062;48.726;9.370;2023-05-02T09:00:57;22.80;;;17.90;;
78740;SDS011;68062;48.726;9.370;2023-05-02T09:03:31;21.37;;;16.73;;
78740;SDS011;68062;48.726;9.370;2023-05-02T09:06:03;21.03;;;16.77;;
78740;SDS011;68062;48.726;9.370;2023-05-02T09:08:31;20.50;;;15.23;;
78740;SDS011;68062;48.726;9.370;2023-05-02T09:10:58;20.97;;;16.83;;
78740;SDS011;68062;48.726;9.370;2023-05-02T09:13:29;20.30;;;16.17;;
78740;SDS011;68062;48.726;9.370;2023-05-02T09:15:57;20.27;;;16.67;;
78740;SDS011;68062;48.726;9.370;2023-05-02T09:18:30;20.50;;;16.60;;
78740;SDS011;68062;48.726;9.370;2023-05-02T09:20:58;20.37;;;16.63;;
78740;SDS011;68062;48.726;9.370;2023-05-02T09:23:32;20.40;;;16.17;;
78740;SDS011;68062;48.726;9.370;2023-05-02T09:26:00;22.27;;;15.07;;
78740;SDS011;68062;48.726;9.370;2023-05-02T09:28:37;20.47;;;16.03;;
78740;SDS011;68062;48.726;9.370;2023-05-02T09:31:05;18.10;;;16.17;;
78740;SDS011;68062;48.726;9.370;2023-05-02T09:33:35;17.97;;;15.53;;
78740;SDS011;68062;48.726;9.370;2023-05-02T09:36:02;16.40;;;14.90;;
78740;SDS011;68062;48.726;9.370;2023-05-02T09:38:29;18.80;;;15.70;;
78740;SDS011;68062;48.726;9.370;2023-05-02T09:40:56;18.57;;;16.30;;
78740;SDS011;68062;48.726;9.370;2023-05-02T09:43:23;19.20;;;15.70;;
78740;SDS011;68062;48.726;9.370;2023-05-02T09:45:56;19.00;;;15.23;;
78740;SDS011;68062;48.726;9.370;2023-05-02T09:48:25;18.77;;;16.47;;
78740;SDS011;68062;48.726;9.370;2023-05-02T09:50:53;19.60;;;15.80;;
78740;SDS011;68062;48.726;9.370;2023-05-02T09:53:22;21.20;;;16.07;;
78740;SDS011;68062;48.726;9.370;2023-05-02T09:56:00;17.43;;;16.07;;
78740;SDS011;68062;48.726;9.370;2023-05-02T09:58:28;18.47;;;14.30;;
78740;SDS011;68062;48.726;9.370;2023-05-02T10:00:56;17.80;;;15.30;;
78740;SDS011;68062;48.726;9.370;2023-05-02T10:03:24;17.43;;;15.77;;
78740;SDS011;68062;48.726;9.370;2023-05-02T10:05:54;17.90;;;14.13;;
78740;SDS011;68062;48.726;9.370;2023-05-02T10:08:23;16.77;;;13.83;;
78740;SDS011;68062;48.726;9.370;2023-05-02T10:10:53;16.73;;;14.00;;
78740;SDS011;68062;48.726;9.370;2023-05-02T10:13:22;13.47;;;12.57;;
78740;SDS011;68062;48.726;9.370;2023-05-02T10:15:57;15.40;;;14.10;;
78740;SDS011;68062;48.726;9.370;2023-05-02T10:18:26;20.60;;;15.33;;
78740;SDS011;68062;48.726;9.370;2023-05-02T10:20:57;17.20;;;15.10;;
78740;SDS011;68062;48.726;9.370;2023-05-02T10:23:25;18.80;;;15.77;;
78740;SDS011;68062;48.726;9.370;2023-05-02T10:29:22;15.53;;;14.73;;
78740;SDS011;68062;48.726;9.370;2023-05-02T10:31:48;16.77;;;13.50;;
78740;SDS011;68062;48.726;9.370;2023-05-02T10:34:16;16.63;;;14.63;;
78740;SDS011;68062;48.726;9.370;2023-05-02T10:36:45;19.97;;;14.43;;
78740;SDS011;68062;48.726;9.370;2023-05-02T10:39:13;18.43;;;15.50;;
78740;SDS011;68062;48.726;9.370;2023-05-02T10:41:40;17.60;;;15.00;;
78740;SDS011;68062;48.726;9.370;2023-05-02T10:44:09;19.07;;;16.17;;
78740;SDS011;68062;48.726;9.370;2023-05-02T10:46:36;19.60;;;15.53;;
78740;SDS011;68062;48.726;9.370;2023-05-02T10:49:06;17.70;;;15.33;;
78740;SDS011;68062;48.726;9.370;2023-05-02T10:51:34;18.60;;;14.90;;
78740;SDS011;68062;48.726;9.370;2023-05-02T10:54:18;17.17;;;14.60;;
78740;SDS011;68062;48.726;9.370;2023-05-02T10:57:00;16.53;;;14.37;;
78740;SDS011;68062;48.726;9.370;2023-05-02T10:59:29;17.50;;;14.10;;
78740;SDS011;68062;48.726;9.370;2023-05-02T11:01:57;16.90;;;13.77;;
78740;SDS011;68062;48.726;9.370;2023-05-02T11:04:24;12.83;;;12.13;;
78740;SDS011;68062;48.726;9.370;2023-05-02T11:09:45;16.07;;;12.00;;
78740;SDS011;68062;48.726;9.370;2023-05-02T11:12:12;14.60;;;12.37;;
78740;SDS011;68062;48.726;9.370;2023-05-02T11:15:08;16.20;;;13.10;;
78740;SDS011;68062;48.726;9.370;2023-05-02T11:20:25;14.83;;;12.03;;
78740;SDS011;68062;48.726;9.370;2023-05-02T11:22:53;15.57;;;13.43;;
78740;SDS011;68062;48.726;9.370;2023-05-02T11:25:33;15.07;;;13.10;;
78740;SDS011;68062;48.726;9.370;2023-05-02T11:28:01;14.10;;;12.70;;
78740;SDS011;68062;48.726;9.370;2023-05-02T11:30:44;15.63;;;14.00;;
78740;SDS011;68062;48.726;9.370;2023-05-02T11:33:13;17.93;;;15.67;;
78740;SDS011;68062;48.726;9.370;2023-05-02T11:35:42;19.93;;;15.83;;
78740;SDS011;68062;48.726;9.370;2023-05-02T11:38:11;18.93;;;14.90;;
78740;SDS011;68062;48.726;9.370;2023-05-02T11:40:46;17.37;;;13.53;;
78740;SDS011;68062;48.726;9.370;2023-05-02T11:43:16;13.07;;;11.30;;
78740;SDS011;68062;48.726;9.370;2023-05-02T11:45:45;12.60;;;10.93;;
78740;SDS011;68062;48.726;9.370;2023-05-02T11:48:14;13.47;;;12.20;;
78740;SDS011;68062;48.726;9.370;2023-05-02T11:50:42;13.43;;;11.20;;
78740;SDS011;68062;48.726;9.370;2023-05-02T11:53:10;14.03;;;11.73;;
78740;SDS011;68062;48.726;9.370;2023-05-02T11:55:44;14.30;;;12.90;;
78740;SDS011;68062;48.726;9.370;2023-05-02T11:58:12;13.93;;;12.70;;
78740;SDS011;68062;48.726;9.370;2023-05-02T12:00:39;17.33;;;13.70;;
78740;SDS011;68062;48.726;9.370;2023-05-02T12:03:06;15.73;;;13.73;;
78740;SDS011;68062;48.726;9.370;2023-05-02T12:05:33;17.47;;;14.97;;
78740;SDS011;68062;48.726;9.370;2023-05-02T12:08:00;17.90;;;15.13;;
78740;SDS011;68062;48.726;9.370;2023-05-02T12:10:36;16.60;;;14.17;;
78740;SDS011;68062;48.726;9.370;2023-05-02T12:13:05;13.53;;;12.83;;
78740;SDS011;68062;48.726;9.370;2023-05-02T12:15:32;14.90;;;13.30;;
78740;SDS011;68062;48.726;9.370;2023-05-02T12:17:59;16.60;;;15.00;;
78740;SDS011;68062;48.726;9.370;2023-05-02T12:20:26;16.33;;;13.30;;
78740;SDS011;68062;48.726;9.370;2023-05-02T12:22:53;18.67;;;14.30;;
78740;SDS011;68062;48.726;9.370;2023-05-02T12:25:20;16.83;;;13.27;;
78740;SDS011;68062;48.726;9.370;2023-05-02T12:27:59;14.73;;;13.10;;
78740;SDS011;68062;48.726;9.370;2023-05-02T12:30:28;15.00;;;13.30;;
78740;SDS011;68062;48.726;9.370;2023-05-02T12:32:56;15.00;;;11.50;;
78740;SDS011;68062;48.726;9.370;2023-05-02T12:35:23;12.97;;;10.83;;
78740;SDS011;68062;48.726;9.370;2023-05-02T12:37:51;12.50;;;10.80;;
78740;SDS011;68062;48.726;9.370;2023-05-02T12:40:18;16.87;;;12.47;;
78740;SDS011;68062;48.726;9.370;2023-05-02T12:42:57;11.60;;;10.30;;
78740;SDS011;68062;48.726;9.370;2023-05-02T12:45:30;11.80;;;11.20;;
78740;SDS011;68062;48.726;9.370;2023-05-02T12:48:05;13.13;;;10.77;;
78740;SDS011;68062;48.726;9.370;2023-05-02T12:50:43;14.00;;;12.20;;
78740;SDS011;68062;48.726;9.370;2023-05-02T12:53:11;15.93;;;13.13;;
78740;SDS011;68062;48.726;9.370;2023-05-02T12:55:38;18.77;;;15.37;;
78740;SDS011;68062;48.726;9.370;2023-05-02T12:58:05;17.97;;;14.23;;
78740;SDS011;68062;48.726;9.370;2023-05-02T13:00:35;19.97;;;16.07;;
78740;SDS011;68062;48.726;9.370;2023-05-02T13:03:03;15.00;;;13.40;;
78740;SDS011;68062;48.726;9.370;2023-05-02T13:05:30;17.17;;;13.80;;
78740;SDS011;68062;48.726;9.370;2023-05-02T13:07:57;19.53;;;13.80;;
78740;SDS011;68062;48.726;9.370;2023-05-02T13:10:23;19.27;;;14.30;;
78740;SDS011;68062;48.726;9.370;2023-05-02T13:12:51;20.53;;;15.00;;
78740;SDS011;68062;48.726;9.370;2023-05-02T13:15:18;21.10;;;16.20;;
78740;SDS011;68062;48.726;9.370;2023-05-02T13:17:48;17.40;;;14.50;;
78740;SDS011;68062;48.726;9.370;2023-05-02T13:20:16;19.27;;;15.17;;
78740;SDS011;68062;48.726;9.370;2023-05-02T13:22:43;17.80;;;14.80;;
78740;SDS011;68062;48.726;9.370;2023-05-02T13:25:09;18.80;;;14.80;;
78740;SDS011;68062;48.726;9.370;2023-05-02T13:27:36;20.37;;;16.70;;
78740;SDS011;68062;48.726;9.370;2023-05-02T13:30:04;17.80;;;14.70;;
78740;SDS011;68062;48.726;9.370;2023-05-02T13:32:31;16.63;;;13.47;;
78740;SDS011;68062;48.726;9.370;2023-05-02T13:35:00;18.10;;;14.30;;
78740;SDS011;68062;48.726;9.370;2023-05-02T13:37:27;18.80;;;15.13;;
78740;SDS011;68062;48.726;9.370;2023-05-02T13:39:54;19.60;;;13.97;;
78740;SDS011;68062;48.726;9.370;2023-05-02T13:42:21;17.47;;;14.33;;
78740;SDS011;68062;48.726;9.370;2023-05-02T13:44:48;19.27;;;15.10;;
78740;SDS011;68062;48.726;9.370;2023-05-02T13:47:15;18.63;;;14.07;;
78740;SDS011;68062;48.726;9.370;2023-05-02T13:49:41;19.90;;;14.53;;
78740;SDS011;68062;48.726;9.370;2023-05-02T13:52:09;14.17;;;11.93;;
78740;SDS011;68062;48.726;9.370;2023-05-02T13:54:36;15.93;;;12.77;;
78740;SDS011;68062;48.726;9.370;2023-05-02T13:57:03;13.20;;;10.50;;
78740;SDS011;68062;48.726;9.370;2023-05-02T13:59:30;13.50;;;11.53;;
78740;SDS011;68062;48.726;9.370;2023-05-02T14:01:57;15.43;;;12.03;;
78740;SDS011;68062;48.726;9.370;2023-05-02T14:04:24;13.90;;;10.93;;
78740;SDS011;68062;48.726;9.370;2023-05-02T14:06:51;14.83;;;11.37;;
78740;SDS011;68062;48.726;9.370;2023-05-02T14:09:19;14.40;;;11.60;;
78740;SDS011;68062;48.726;9.370;2023-05-02T14:11:46;12.63;;;10.00;;
78740;SDS011;68062;48.726;9.370;2023-05-02T14:14:13;12.50;;;10.23;;
78740;SDS011;68062;48.726;9.370;2023-05-02T14:16:40;12.03;;;10.37;;
78740;SDS011;68062;48.726;9.370;2023-05-02T14:19:07;14.33;;;11.20;;
78740;SDS011;68062;48.726;9.370;2023-05-02T14:21:33;13.53;;;11.87;;
78740;SDS011;68062;48.726;9.370;2023-05-02T14:24:01;14.40;;;11.43;;
78740;SDS011;68062;48.726;9.370;2023-05-02T14:26:29;13.73;;;10.50;;
78740;SDS011;68062;48.726;9.370;2023-05-02T14:28:56;14.53;;;11.70;;
78740;SDS011;68062;48.726;9.370;2023-05-02T14:31:23;10.47;;;9.93;;
78740;SDS011;68062;48.726;9.370;2023-05-02T14:33:49;13.43;;;12.73;;
78740;SDS011;68062;48.726;9.370;2023-05-02T14:36:16;15.80;;;12.00;;
78740;SDS011;68062;48.726;9.370;2023-05-02T14:38:43;15.10;;;11.83;;
78740;SDS011;68062;48.726;9.370;2023-05-02T14:41:10;12.50;;;11.00;;
78740;SDS011;68062;48.726;9.370;2023-05-02T14:43:38;13.70;;;11.23;;
78740;SDS011;68062;48.726;9.370;2023-05-02T14:46:06;12.20;;;10.60;;
78740;SDS011;68062;48.726;9.370;2023-05-02T14:48:33;14.67;;;10.67;;
78740;SDS011;68062;48.726;9.370;2023-05-02T14:51:01;12.03;;;9.20;;